sensor_id;sensor_type;location;lat;lon;timestamp;P1;durP1;ratioP1;P2;durP2;ratioP2
23080;SDS011;11708;50.570;8.532;2022-12-18T00:01:05;37.00;;;14.27;;
23080;SDS011;11708;50.570;8.532;2022-12-18T00:03:43;42.22;;;15.00;;
23080;SDS011;11708;50.570;8.532;2022-12-18T00:06:09;43.85;;;14.10;;
23080;SDS011;11708;50.570;8.532;2022-12-18T00:08:35;50.85;;;15.57;;
23080;SDS011;11708;50.570;8.532;2022-12-18T00:11:04;43.90;;;14.68;;
23080;SDS011;11708;50.570;8.532;2022-12-18T00:13:31;42.95;;;14.13;;
23080;SDS011;11708;50.570;8.532;2022-12-18T00:16:01;38.78;;;14.52;;
23080;SDS011;11708;50.570;8.532;2022-12-18T00:18:28;39.47;;;13.32;;
23080;SDS011;11708;50.570;8.532;2022-12-18T00:20:54;39.75;;;13.52;;
23080;SDS011;11708;50.570;8.532;2022-12-18T00:23:28;36.25;;;13.25;;
23080;SDS011;11708;50.570;8.532;2022-12-18T00:25:54;38.80;;;13.02;;
23080;SDS011;11708;50.570;8.532;2022-12-18T00:28:19;34.35;;;13.35;;
23080;SDS011;11708;50.570;8.532;2022-12-18T00:30:45;34.75;;;12.98;;
23080;SDS011;11708;50.570;8.532;2022-12-18T00:33:10;30.77;;;12.20;;
23080;SDS011;11708;50.570;8.532;2022-12-18T00:35:36;29.13;;;12.82;;
23080;SDS011;11708;50.570;8.532;2022-12-18T00:38:02;33.60;;;11.98;;
23080;SDS011;11708;50.570;8.532;2022-12-18T00:40:27;38.70;;;13.05;;
23080;SDS011;11708;50.570;8.532;2022-12-18T00:42:53;37.42;;;13.88;;
23080;SDS011;11708;50.570;8.532;2022-12-18T00:45:25;35.25;;;12.70;;
23080;SDS011;11708;50.570;8.532;2022-12-18T00:47:53;32.75;;;12.73;;
23080;SDS011;11708;50.570;8.532;2022-12-18T00:50:20;31.25;;;11.85;;
23080;SDS011;11708;50.570;8.532;2022-12-18T00:52:46;34.97;;;12.55;;
23080;SDS011;11708;50.570;8.532;2022-12-18T00:55:11;33.47;;;12.55;;
23080;SDS011;11708;50.570;8.532;2022-12-18T00:57:38;35.35;;;12.82;;
23080;SDS011;11708;50.570;8.532;2022-12-18T01:00:05;34.80;;;12.77;;
23080;SDS011;11708;50.570;8.532;2022-12-18T01:02:33;33.50;;;12.27;;
23080;SDS011;11708;50.570;8.532;2022-12-18T01:04:58;30.05;;;12.15;;
23080;SDS011;11708;50.570;8.532;2022-12-18T01:07:24;33.05;;;11.68;;
23080;SDS011;11708;50.570;8.532;2022-12-18T01:09:49;28.85;;;11.40;;
23080;SDS011;11708;50.570;8.532;2022-12-18T01:12:15;33.05;;;12.85;;
23080;SDS011;11708;50.570;8.532;2022-12-18T01:14:43;30.33;;;11.20;;
23080;SDS011;11708;50.570;8.532;2022-12-18T01:17:09;30.73;;;12.45;;
23080;SDS011;11708;50.570;8.532;2022-12-18T01:19:34;28.42;;;11.98;;
23080;SDS011;11708;50.570;8.532;2022-12-18T01:22:00;27.38;;;10.18;;
23080;SDS011;11708;50.570;8.532;2022-12-18T01:24:26;31.08;;;11.55;;
23080;SDS011;11708;50.570;8.532;2022-12-18T01:26:51;27.85;;;11.15;;
23080;SDS011;11708;50.570;8.532;2022-12-18T01:29:17;32.95;;;11.43;;
23080;SDS011;11708;50.570;8.532;2022-12-18T01:31:43;31.77;;;11.90;;
23080;SDS011;11708;50.570;8.532;2022-12-18T01:34:08;26.50;;;10.55;;
23080;SDS011;11708;50.570;8.532;2022-12-18T01:36:36;31.48;;;11.70;;
23080;SDS011;11708;50.570;8.532;2022-12-18T01:39:05;30.77;;;11.68;;
23080;SDS011;11708;50.570;8.532;2022-12-18T01:41:35;32.85;;;11.88;;
23080;SDS011;11708;50.570;8.532;2022-12-18T01:50:02;32.40;;;11.40;;
23080;SDS011;11708;50.570;8.532;2022-12-18T01:52:50;29.42;;;11.90;;
23080;SDS011;11708;50.570;8.532;2022-12-18T01:55:19;29.45;;;11.30;;
23080;SDS011;11708;50.570;8.532;2022-12-18T01:57:48;26.33;;;10.10;;
23080;SDS011;11708;50.570;8.532;2022-12-18T02:00:18;31.83;;;11.93;;
23080;SDS011;11708;50.570;8.532;2022-12-18T02:02:46;30.00;;;11.45;;
23080;SDS011;11708;50.570;8.532;2022-12-18T02:05:13;30.30;;;11.85;;
23080;SDS011;11708;50.570;8.532;2022-12-18T02:13:25;26.73;;;10.63;;
23080;SDS011;11708;50.570;8.532;2022-12-18T02:16:02;35.80;;;12.18;;
23080;SDS011;11708;50.570;8.532;2022-12-18T02:18:45;26.10;;;10.02;;
23080;SDS011;11708;50.570;8.532;2022-12-18T02:26:43;22.83;;;9.52;;
23080;SDS011;11708;50.570;8.532;2022-12-18T02:29:31;26.73;;;10.88;;
23080;SDS011;11708;50.570;8.532;2022-12-18T02:32:00;33.90;;;10.80;;
23080;SDS011;11708;50.570;8.532;2022-12-18T02:34:29;32.70;;;12.85;;
23080;SDS011;11708;50.570;8.532;2022-12-18T02:36:58;31.27;;;11.25;;
23080;SDS011;11708;50.570;8.532;2022-12-18T02:39:26;27.95;;;10.90;;
23080;SDS011;11708;50.570;8.532;2022-12-18T02:41:54;27.25;;;10.50;;
23080;SDS011;11708;50.570;8.532;2022-12-18T02:44:20;33.03;;;11.40;;
23080;SDS011;11708;50.570;8.532;2022-12-18T02:46:46;25.33;;;9.90;;
23080;SDS011;11708;50.570;8.532;2022-12-18T02:49:36;32.65;;;10.93;;
23080;SDS011;11708;50.570;8.532;2022-12-18T02:52:28;31.38;;;11.48;;
23080;SDS011;11708;50.570;8.532;2022-12-18T02:58:07;31.45;;;11.15;;
23080;SDS011;11708;50.570;8.532;2022-12-18T03:00:42;32.78;;;11.55;;
23080;SDS011;11708;50.570;8.532;2022-12-18T03:03:19;32.05;;;12.07;;
23080;SDS011;11708;50.570;8.532;2022-12-18T03:05:56;34.10;;;11.45;;
23080;SDS011;11708;50.570;8.532;2022-12-18T03:08:30;31.67;;;12.02;;
23080;SDS011;11708;50.570;8.532;2022-12-18T03:11:06;26.40;;;10.55;;
23080;SDS011;11708;50.570;8.532;2022-12-18T03:13:48;35.03;;;13.95;;
23080;SDS011;11708;50.570;8.532;2022-12-18T03:16:28;32.75;;;11.85;;
23080;SDS011;11708;50.570;8.532;2022-12-18T03:18:56;32.88;;;11.23;;
23080;SDS011;11708;50.570;8.532;2022-12-18T03:21:36;30.88;;;11.48;;
23080;SDS011;11708;50.570;8.532;2022-12-18T03:24:05;34.88;;;13.40;;
23080;SDS011;11708;50.570;8.532;2022-12-18T03:26:34;33.15;;;11.82;;
23080;SDS011;11708;50.570;8.532;2022-12-18T03:29:24;24.42;;;10.70;;
23080;SDS011;11708;50.570;8.532;2022-12-18T03:31:59;34.92;;;11.23;;
23080;SDS011;11708;50.570;8.532;2022-12-18T03:34:31;33.75;;;11.65;;
23080;SDS011;11708;50.570;8.532;2022-12-18T03:37:02;32.28;;;11.80;;
23080;SDS011;11708;50.570;8.532;2022-12-18T03:39:29;30.20;;;12.55;;
23080;SDS011;11708;50.570;8.532;2022-12-18T03:41:58;28.30;;;11.23;;
23080;SDS011;11708;50.570;8.532;2022-12-18T03:44:45;27.90;;;10.02;;
23080;SDS011;11708;50.570;8.532;2022-12-18T03:52:48;25.77;;;9.93;;
23080;SDS011;11708;50.570;8.532;2022-12-18T03:55:33;29.75;;;10.45;;
23080;SDS011;11708;50.570;8.532;2022-12-18T03:58:01;27.23;;;11.45;;
23080;SDS011;11708;50.570;8.532;2022-12-18T04:00:28;27.08;;;10.65;;
23080;SDS011;11708;50.570;8.532;2022-12-18T04:02:55;28.10;;;9.77;;
23080;SDS011;11708;50.570;8.532;2022-12-18T04:05:22;30.90;;;11.63;;
23080;SDS011;11708;50.570;8.532;2022-12-18T04:07:50;24.95;;;9.85;;
23080;SDS011;11708;50.570;8.532;2022-12-18T04:10:21;27.10;;;10.82;;
23080;SDS011;11708;50.570;8.532;2022-12-18T04:12:47;25.50;;;11.48;;
23080;SDS011;11708;50.570;8.532;2022-12-18T04:15:13;31.05;;;10.82;;
23080;SDS011;11708;50.570;8.532;2022-12-18T04:17:42;31.92;;;11.18;;
23080;SDS011;11708;50.570;8.532;2022-12-18T04:20:14;31.15;;;11.13;;
23080;SDS011;11708;50.570;8.532;2022-12-18T04:22:40;28.40;;;12.25;;
23080;SDS011;11708;50.570;8.532;2022-12-18T04:25:06;31.27;;;11.10;;
23080;SDS011;11708;50.570;8.532;2022-12-18T04:27:32;27.35;;;11.23;;
23080;SDS011;11708;50.570;8.532;2022-12-18T04:29:58;28.10;;;11.85;;
23080;SDS011;11708;50.570;8.532;2022-12-18T04:32:23;29.92;;;11.50;;
23080;SDS011;11708;50.570;8.532;2022-12-18T04:34:52;39.45;;;12.10;;
23080;SDS011;11708;50.570;8.532;2022-12-18T04:37:17;24.15;;;10.95;;
23080;SDS011;11708;50.570;8.532;2022-12-18T04:39:43;30.58;;;11.50;;
23080;SDS011;11708;50.570;8.532;2022-12-18T04:42:09;37.42;;;11.93;;
23080;SDS011;11708;50.570;8.532;2022-12-18T04:44:34;31.98;;;11.68;;
23080;SDS011;11708;50.570;8.532;2022-12-18T04:47:00;32.20;;;10.70;;
23080;SDS011;11708;50.570;8.532;2022-12-18T04:49:26;29.85;;;9.55;;
23080;SDS011;11708;50.570;8.532;2022-12-18T04:51:51;26.90;;;10.65;;
23080;SDS011;11708;50.570;8.532;2022-12-18T04:54:17;29.02;;;10.73;;
23080;SDS011;11708;50.570;8.532;2022-12-18T04:56:46;31.45;;;10.52;;
23080;SDS011;11708;50.570;8.532;2022-12-18T04:59:15;30.70;;;10.40;;
23080;SDS011;11708;50.570;8.532;2022-12-18T05:01:41;32.20;;;11.88;;
23080;SDS011;11708;50.570;8.532;2022-12-18T05:04:07;25.35;;;10.32;;
23080;SDS011;11708;50.570;8.532;2022-12-18T05:06:35;31.05;;;10.20;;
23080;SDS011;11708;50.570;8.532;2022-12-18T05:09:01;30.73;;;11.38;;
23080;SDS011;11708;50.570;8.532;2022-12-18T05:11:27;30.25;;;10.73;;
23080;SDS011;11708;50.570;8.532;2022-12-18T05:13:53;21.98;;;9.38;;
23080;SDS011;11708;50.570;8.532;2022-12-18T05:16:22;28.38;;;10.10;;
23080;SDS011;11708;50.570;8.532;2022-12-18T05:18:48;21.27;;;9.65;;
23080;SDS011;11708;50.570;8.532;2022-12-18T05:21:14;25.38;;;10.35;;
23080;SDS011;11708;50.570;8.532;2022-12-18T05:23:40;30.23;;;10.25;;
23080;SDS011;11708;50.570;8.532;2022-12-18T05:26:06;30.55;;;10.95;;
23080;SDS011;11708;50.570;8.532;2022-12-18T05:28:33;32.42;;;10.98;;
23080;SDS011;11708;50.570;8.532;2022-12-18T05:31:00;22.10;;;8.45;;
23080;SDS011;11708;50.570;8.532;2022-12-18T05:33:29;28.08;;;10.48;;
23080;SDS011;11708;50.570;8.532;2022-12-18T05:35:57;21.77;;;9.25;;
23080;SDS011;11708;50.570;8.532;2022-12-18T05:38:31;25.58;;;10.68;;
23080;SDS011;11708;50.570;8.532;2022-12-18T05:40:58;31.50;;;11.73;;
23080;SDS011;11708;50.570;8.532;2022-12-18T05:43:24;27.92;;;10.35;;
23080;SDS011;11708;50.570;8.532;2022-12-18T05:45:51;27.70;;;11.05;;
23080;SDS011;11708;50.570;8.532;2022-12-18T05:48:17;30.35;;;11.63;;
23080;SDS011;11708;50.570;8.532;2022-12-18T05:50:44;25.15;;;10.48;;
23080;SDS011;11708;50.570;8.532;2022-12-18T05:53:11;27.08;;;10.13;;
23080;SDS011;11708;50.570;8.532;2022-12-18T05:55:38;29.35;;;10.70;;
23080;SDS011;11708;50.570;8.532;2022-12-18T05:58:06;24.10;;;9.93;;
23080;SDS011;11708;50.570;8.532;2022-12-18T06:00:34;28.67;;;10.55;;
23080;SDS011;11708;50.570;8.532;2022-12-18T06:03:04;32.25;;;11.23;;
23080;SDS011;11708;50.570;8.532;2022-12-18T06:05:34;22.35;;;9.43;;
23080;SDS011;11708;50.570;8.532;2022-12-18T06:08:02;23.27;;;8.98;;
23080;SDS011;11708;50.570;8.532;2022-12-18T06:10:28;27.25;;;11.15;;
23080;SDS011;11708;50.570;8.532;2022-12-18T06:12:54;23.52;;;9.98;;
23080;SDS011;11708;50.570;8.532;2022-12-18T06:15:20;28.45;;;11.50;;
23080;SDS011;11708;50.570;8.532;2022-12-18T06:17:45;25.98;;;9.38;;
23080;SDS011;11708;50.570;8.532;2022-12-18T06:20:11;24.02;;;10.13;;
23080;SDS011;11708;50.570;8.532;2022-12-18T06:22:37;26.50;;;10.68;;
23080;SDS011;11708;50.570;8.532;2022-12-18T06:25:03;28.60;;;10.40;;
23080;SDS011;11708;50.570;8.532;2022-12-18T06:27:29;32.95;;;11.30;;
23080;SDS011;11708;50.570;8.532;2022-12-18T06:29:55;27.73;;;10.20;;
23080;SDS011;11708;50.570;8.532;2022-12-18T06:32:21;26.63;;;10.38;;
23080;SDS011;11708;50.570;8.532;2022-12-18T06:34:49;31.13;;;10.98;;
23080;SDS011;11708;50.570;8.532;2022-12-18T06:37:16;27.20;;;11.52;;
23080;SDS011;11708;50.570;8.532;2022-12-18T06:39:42;29.38;;;10.00;;
23080;SDS011;11708;50.570;8.532;2022-12-18T06:42:07;29.90;;;9.73;;
23080;SDS011;11708;50.570;8.532;2022-12-18T06:44:33;25.70;;;11.60;;
23080;SDS011;11708;50.570;8.532;2022-12-18T06:46:59;28.55;;;10.70;;
23080;SDS011;11708;50.570;8.532;2022-12-18T06:49:25;26.35;;;10.02;;
23080;SDS011;11708;50.570;8.532;2022-12-18T06:51:51;27.38;;;10.05;;
23080;SDS011;11708;50.570;8.532;2022-12-18T06:54:17;24.35;;;9.45;;
23080;SDS011;11708;50.570;8.532;2022-12-18T06:56:46;30.27;;;10.45;;
23080;SDS011;11708;50.570;8.532;2022-12-18T06:59:15;33.40;;;10.73;;
23080;SDS011;11708;50.570;8.532;2022-12-18T07:01:40;26.02;;;9.10;;
23080;SDS011;11708;50.570;8.532;2022-12-18T07:04:06;26.67;;;10.63;;
23080;SDS011;11708;50.570;8.532;2022-12-18T07:06:32;25.15;;;10.60;;
23080;SDS011;11708;50.570;8.532;2022-12-18T07:08:58;32.20;;;10.38;;
23080;SDS011;11708;50.570;8.532;2022-12-18T07:11:24;30.83;;;11.25;;
23080;SDS011;11708;50.570;8.532;2022-12-18T07:13:51;26.33;;;10.73;;
23080;SDS011;11708;50.570;8.532;2022-12-18T07:16:18;26.63;;;9.82;;
23080;SDS011;11708;50.570;8.532;2022-12-18T07:18:45;27.48;;;9.93;;
23080;SDS011;11708;50.570;8.532;2022-12-18T07:21:12;29.17;;;11.50;;
23080;SDS011;11708;50.570;8.532;2022-12-18T07:23:39;31.25;;;10.85;;
23080;SDS011;11708;50.570;8.532;2022-12-18T07:26:26;28.80;;;11.13;;
23080;SDS011;11708;50.570;8.532;2022-12-18T07:28:53;29.05;;;11.38;;
23080;SDS011;11708;50.570;8.532;2022-12-18T07:31:21;36.92;;;12.45;;
23080;SDS011;11708;50.570;8.532;2022-12-18T07:33:47;29.58;;;10.85;;
23080;SDS011;11708;50.570;8.532;2022-12-18T07:36:13;27.67;;;11.93;;
23080;SDS011;11708;50.570;8.532;2022-12-18T07:38:39;28.90;;;12.60;;
23080;SDS011;11708;50.570;8.532;2022-12-18T07:41:06;27.25;;;12.05;;
23080;SDS011;11708;50.570;8.532;2022-12-18T07:43:34;32.15;;;11.98;;
23080;SDS011;11708;50.570;8.532;2022-12-18T07:46:00;28.20;;;13.18;;
23080;SDS011;11708;50.570;8.532;2022-12-18T07:48:30;34.25;;;11.80;;
23080;SDS011;11708;50.570;8.532;2022-12-18T07:50:59;30.05;;;11.57;;
23080;SDS011;11708;50.570;8.532;2022-12-18T07:53:25;26.20;;;11.68;;
23080;SDS011;11708;50.570;8.532;2022-12-18T07:55:58;35.53;;;12.80;;
23080;SDS011;11708;50.570;8.532;2022-12-18T07:58:25;54.20;;;19.92;;
23080;SDS011;11708;50.570;8.532;2022-12-18T08:00:51;46.33;;;17.05;;
23080;SDS011;11708;50.570;8.532;2022-12-18T08:03:17;29.38;;;11.77;;
23080;SDS011;11708;50.570;8.532;2022-12-18T08:05:42;30.67;;;12.85;;
23080;SDS011;11708;50.570;8.532;2022-12-18T08:08:08;30.13;;;11.85;;
23080;SDS011;11708;50.570;8.532;2022-12-18T08:10:34;28.40;;;11.60;;
23080;SDS011;11708;50.570;8.532;2022-12-18T08:12:59;32.17;;;12.30;;
23080;SDS011;11708;50.570;8.532;2022-12-18T08:15:25;30.42;;;11.77;;
23080;SDS011;11708;50.570;8.532;2022-12-18T08:17:50;32.38;;;12.00;;
23080;SDS011;11708;50.570;8.532;2022-12-18T08:20:16;28.98;;;10.75;;
23080;SDS011;11708;50.570;8.532;2022-12-18T08:22:43;30.25;;;11.63;;
23080;SDS011;11708;50.570;8.532;2022-12-18T08:25:09;28.50;;;11.80;;
23080;SDS011;11708;50.570;8.532;2022-12-18T08:27:35;23.05;;;9.90;;
23080;SDS011;11708;50.570;8.532;2022-12-18T08:30:01;25.33;;;10.05;;
23080;SDS011;11708;50.570;8.532;2022-12-18T08:32:27;29.58;;;12.07;;
23080;SDS011;11708;50.570;8.532;2022-12-18T08:34:53;25.50;;;10.10;;
23080;SDS011;11708;50.570;8.532;2022-12-18T08:37:19;27.58;;;11.85;;
23080;SDS011;11708;50.570;8.532;2022-12-18T08:39:44;56.83;;;22.90;;
23080;SDS011;11708;50.570;8.532;2022-12-18T08:42:10;46.15;;;18.77;;
23080;SDS011;11708;50.570;8.532;2022-12-18T08:44:54;35.10;;;13.05;;
23080;SDS011;11708;50.570;8.532;2022-12-18T08:47:20;32.75;;;12.82;;
23080;SDS011;11708;50.570;8.532;2022-12-18T08:49:46;22.52;;;10.05;;
23080;SDS011;11708;50.570;8.532;2022-12-18T08:52:11;26.23;;;10.77;;
23080;SDS011;11708;50.570;8.532;2022-12-18T08:54:37;33.13;;;13.48;;
23080;SDS011;11708;50.570;8.532;2022-12-18T08:57:02;35.55;;;12.98;;
23080;SDS011;11708;50.570;8.532;2022-12-18T08:59:28;34.22;;;12.50;;
23080;SDS011;11708;50.570;8.532;2022-12-18T09:01:54;32.53;;;12.10;;
23080;SDS011;11708;50.570;8.532;2022-12-18T09:04:20;33.25;;;12.93;;
23080;SDS011;11708;50.570;8.532;2022-12-18T09:06:45;29.20;;;12.07;;
23080;SDS011;11708;50.570;8.532;2022-12-18T09:09:11;31.17;;;12.85;;
23080;SDS011;11708;50.570;8.532;2022-12-18T09:11:37;34.78;;;12.82;;
23080;SDS011;11708;50.570;8.532;2022-12-18T09:14:03;30.63;;;11.75;;
23080;SDS011;11708;50.570;8.532;2022-12-18T09:16:32;28.73;;;12.55;;
23080;SDS011;11708;50.570;8.532;2022-12-18T09:18:59;29.48;;;12.18;;
23080;SDS011;11708;50.570;8.532;2022-12-18T09:21:27;34.38;;;13.25;;
23080;SDS011;11708;50.570;8.532;2022-12-18T09:23:57;28.77;;;13.23;;
23080;SDS011;11708;50.570;8.532;2022-12-18T09:26:26;27.95;;;11.75;;
23080;SDS011;11708;50.570;8.532;2022-12-18T09:28:52;35.25;;;13.13;;
23080;SDS011;11708;50.570;8.532;2022-12-18T09:31:19;27.67;;;13.02;;
23080;SDS011;11708;50.570;8.532;2022-12-18T09:33:46;30.52;;;12.75;;
23080;SDS011;11708;50.570;8.532;2022-12-18T09:36:12;33.92;;;12.98;;
23080;SDS011;11708;50.570;8.532;2022-12-18T09:38:42;30.00;;;12.40;;
23080;SDS011;11708;50.570;8.532;2022-12-18T09:41:31;34.45;;;13.40;;
23080;SDS011;11708;50.570;8.532;2022-12-18T09:49:58;31.67;;;13.52;;
23080;SDS011;11708;50.570;8.532;2022-12-18T09:52:41;29.83;;;13.68;;
23080;SDS011;11708;50.570;8.532;2022-12-18T09:55:24;33.40;;;14.32;;
23080;SDS011;11708;50.570;8.532;2022-12-18T09:57:58;35.80;;;13.27;;
23080;SDS011;11708;50.570;8.532;2022-12-18T10:00:29;30.90;;;13.30;;
23080;SDS011;11708;50.570;8.532;2022-12-18T10:03:11;34.08;;;14.15;;
23080;SDS011;11708;50.570;8.532;2022-12-18T10:05:41;58.88;;;21.50;;
23080;SDS011;11708;50.570;8.532;2022-12-18T10:16:34;28.15;;;13.10;;
23080;SDS011;11708;50.570;8.532;2022-12-18T10:19:10;31.02;;;13.68;;
23080;SDS011;11708;50.570;8.532;2022-12-18T10:24:41;27.23;;;13.68;;
23080;SDS011;11708;50.570;8.532;2022-12-18T10:27:30;28.90;;;13.23;;
23080;SDS011;11708;50.570;8.532;2022-12-18T10:29:56;30.27;;;13.95;;
23080;SDS011;11708;50.570;8.532;2022-12-18T10:32:23;32.25;;;13.30;;
23080;SDS011;11708;50.570;8.532;2022-12-18T10:34:55;25.58;;;12.65;;
23080;SDS011;11708;50.570;8.532;2022-12-18T10:37:26;29.42;;;13.68;;
23080;SDS011;11708;50.570;8.532;2022-12-18T10:42:32;29.30;;;13.35;;
23080;SDS011;11708;50.570;8.532;2022-12-18T10:45:11;27.60;;;13.13;;
23080;SDS011;11708;50.570;8.532;2022-12-18T10:47:45;26.83;;;12.65;;
23080;SDS011;11708;50.570;8.532;2022-12-18T10:50:47;32.00;;;13.30;;
23080;SDS011;11708;50.570;8.532;2022-12-18T10:53:05;27.75;;;13.13;;
23080;SDS011;11708;50.570;8.532;2022-12-18T10:55:31;24.80;;;12.75;;
23080;SDS011;11708;50.570;8.532;2022-12-18T11:00:40;26.15;;;12.45;;
23080;SDS011;11708;50.570;8.532;2022-12-18T11:03:28;24.73;;;12.77;;
23080;SDS011;11708;50.570;8.532;2022-12-18T11:06:05;38.65;;;19.00;;
23080;SDS011;11708;50.570;8.532;2022-12-18T11:08:33;28.45;;;14.13;;
23080;SDS011;11708;50.570;8.532;2022-12-18T11:10:58;25.38;;;12.80;;
23080;SDS011;11708;50.570;8.532;2022-12-18T11:13:25;23.73;;;12.05;;
23080;SDS011;11708;50.570;8.532;2022-12-18T11:15:53;28.50;;;12.70;;
23080;SDS011;11708;50.570;8.532;2022-12-18T11:18:25;27.42;;;13.35;;
23080;SDS011;11708;50.570;8.532;2022-12-18T11:20:59;26.10;;;12.35;;
23080;SDS011;11708;50.570;8.532;2022-12-18T11:23:36;25.20;;;12.75;;
23080;SDS011;11708;50.570;8.532;2022-12-18T11:26:09;24.85;;;13.50;;
23080;SDS011;11708;50.570;8.532;2022-12-18T11:31:27;27.25;;;14.02;;
23080;SDS011;11708;50.570;8.532;2022-12-18T11:36:53;29.42;;;12.60;;
23080;SDS011;11708;50.570;8.532;2022-12-18T11:42:20;30.63;;;13.60;;
23080;SDS011;11708;50.570;8.532;2022-12-18T11:50:05;30.85;;;14.27;;
23080;SDS011;11708;50.570;8.532;2022-12-18T11:52:56;30.80;;;15.02;;
23080;SDS011;11708;50.570;8.532;2022-12-18T11:55:35;29.92;;;13.90;;
23080;SDS011;11708;50.570;8.532;2022-12-18T12:01:13;34.42;;;15.35;;
23080;SDS011;11708;50.570;8.532;2022-12-18T12:04:03;32.53;;;15.38;;
23080;SDS011;11708;50.570;8.532;2022-12-18T12:06:53;30.48;;;15.02;;
23080;SDS011;11708;50.570;8.532;2022-12-18T12:17:37;34.72;;;17.08;;
23080;SDS011;11708;50.570;8.532;2022-12-18T12:20:25;33.17;;;14.98;;
23080;SDS011;11708;50.570;8.532;2022-12-18T12:39:33;40.13;;;16.55;;
23080;SDS011;11708;50.570;8.532;2022-12-18T12:42:02;39.88;;;16.92;;
23080;SDS011;11708;50.570;8.532;2022-12-18T12:44:50;40.70;;;17.95;;
23080;SDS011;11708;50.570;8.532;2022-12-18T12:47:20;40.80;;;17.40;;
23080;SDS011;11708;50.570;8.532;2022-12-18T12:49:56;33.28;;;15.82;;
23080;SDS011;11708;50.570;8.532;2022-12-18T12:52:30;38.25;;;17.38;;
23080;SDS011;11708;50.570;8.532;2022-12-18T12:55:03;38.90;;;16.98;;
23080;SDS011;11708;50.570;8.532;2022-12-18T12:57:36;38.88;;;17.83;;
23080;SDS011;11708;50.570;8.532;2022-12-18T13:02:56;36.78;;;16.92;;
23080;SDS011;11708;50.570;8.532;2022-12-18T13:05:52;35.88;;;15.98;;
23080;SDS011;11708;50.570;8.532;2022-12-18T13:08:28;37.70;;;17.48;;
23080;SDS011;11708;50.570;8.532;2022-12-18T13:10:55;37.15;;;16.58;;
23080;SDS011;11708;50.570;8.532;2022-12-18T13:13:52;36.22;;;16.45;;
23080;SDS011;11708;50.570;8.532;2022-12-18T13:16:20;38.58;;;16.70;;
23080;SDS011;11708;50.570;8.532;2022-12-18T13:18:49;39.63;;;17.50;;
23080;SDS011;11708;50.570;8.532;2022-12-18T13:23:52;40.13;;;17.67;;
23080;SDS011;11708;50.570;8.532;2022-12-18T13:36:45;38.10;;;17.58;;
23080;SDS011;11708;50.570;8.532;2022-12-18T13:41:43;43.50;;;18.10;;
23080;SDS011;11708;50.570;8.532;2022-12-18T13:47:05;45.42;;;18.30;;
23080;SDS011;11708;50.570;8.532;2022-12-18T13:49:57;39.83;;;16.83;;
23080;SDS011;11708;50.570;8.532;2022-12-18T13:52:36;36.55;;;17.65;;
23080;SDS011;11708;50.570;8.532;2022-12-18T13:55:05;45.83;;;16.75;;
23080;SDS011;11708;50.570;8.532;2022-12-18T13:57:39;45.65;;;18.98;;
23080;SDS011;11708;50.570;8.532;2022-12-18T14:00:16;43.80;;;18.13;;
23080;SDS011;11708;50.570;8.532;2022-12-18T14:02:53;47.90;;;17.77;;
23080;SDS011;11708;50.570;8.532;2022-12-18T14:05:35;48.25;;;18.40;;
23080;SDS011;11708;50.570;8.532;2022-12-18T14:08:06;49.55;;;16.88;;
23080;SDS011;11708;50.570;8.532;2022-12-18T14:10:35;46.38;;;18.92;;
23080;SDS011;11708;50.570;8.532;2022-12-18T14:13:09;50.85;;;17.98;;
23080;SDS011;11708;50.570;8.532;2022-12-18T14:15:39;50.72;;;18.33;;
23080;SDS011;11708;50.570;8.532;2022-12-18T14:20:51;46.88;;;18.23;;
23080;SDS011;11708;50.570;8.532;2022-12-18T14:23:27;46.13;;;17.08;;
23080;SDS011;11708;50.570;8.532;2022-12-18T14:26:17;55.08;;;19.98;;
23080;SDS011;11708;50.570;8.532;2022-12-18T14:28:46;51.90;;;19.23;;
23080;SDS011;11708;50.570;8.532;2022-12-18T14:31:22;48.80;;;17.70;;
23080;SDS011;11708;50.570;8.532;2022-12-18T14:33:49;44.92;;;16.33;;
23080;SDS011;11708;50.570;8.532;2022-12-18T14:36:17;49.13;;;19.77;;
23080;SDS011;11708;50.570;8.532;2022-12-18T14:38:50;45.03;;;18.33;;
23080;SDS011;11708;50.570;8.532;2022-12-18T14:41:17;43.53;;;18.48;;
23080;SDS011;11708;50.570;8.532;2022-12-18T14:43:45;52.67;;;19.48;;
23080;SDS011;11708;50.570;8.532;2022-12-18T14:49:17;39.72;;;17.50;;
23080;SDS011;11708;50.570;8.532;2022-12-18T14:52:02;44.10;;;17.17;;
23080;SDS011;11708;50.570;8.532;2022-12-18T14:54:29;43.95;;;17.65;;
23080;SDS011;11708;50.570;8.532;2022-12-18T14:57:00;46.53;;;18.08;;
23080;SDS011;11708;50.570;8.532;2022-12-18T14:59:31;47.38;;;18.30;;
23080;SDS011;11708;50.570;8.532;2022-12-18T15:01:59;49.03;;;19.15;;
23080;SDS011;11708;50.570;8.532;2022-12-18T15:04:29;44.88;;;17.50;;
23080;SDS011;11708;50.570;8.532;2022-12-18T15:07:09;46.13;;;17.60;;
23080;SDS011;11708;50.570;8.532;2022-12-18T15:09:42;43.78;;;18.05;;
23080;SDS011;11708;50.570;8.532;2022-12-18T15:33:37;45.38;;;17.13;;
23080;SDS011;11708;50.570;8.532;2022-12-18T15:36:17;48.72;;;17.25;;
23080;SDS011;11708;50.570;8.532;2022-12-18T15:38:46;45.78;;;18.45;;
23080;SDS011;11708;50.570;8.532;2022-12-18T15:41:17;54.78;;;21.17;;
23080;SDS011;11708;50.570;8.532;2022-12-18T15:43:45;48.15;;;19.52;;
23080;SDS011;11708;50.570;8.532;2022-12-18T15:46:13;49.00;;;19.73;;
23080;SDS011;11708;50.570;8.532;2022-12-18T15:48:44;53.85;;;21.75;;
23080;SDS011;11708;50.570;8.532;2022-12-18T15:51:13;48.10;;;18.52;;
23080;SDS011;11708;50.570;8.532;2022-12-18T15:53:45;54.65;;;19.13;;
23080;SDS011;11708;50.570;8.532;2022-12-18T15:56:15;48.13;;;19.30;;
23080;SDS011;11708;50.570;8.532;2022-12-18T15:59:00;48.33;;;17.52;;
23080;SDS011;11708;50.570;8.532;2022-12-18T16:01:27;50.17;;;19.58;;
23080;SDS011;11708;50.570;8.532;2022-12-18T16:03:56;46.83;;;18.67;;
23080;SDS011;11708;50.570;8.532;2022-12-18T16:06:22;43.08;;;18.17;;
23080;SDS011;11708;50.570;8.532;2022-12-18T16:08:48;42.80;;;17.60;;
23080;SDS011;11708;50.570;8.532;2022-12-18T16:11:24;45.33;;;18.17;;
23080;SDS011;11708;50.570;8.532;2022-12-18T16:16:30;46.90;;;17.83;;
23080;SDS011;11708;50.570;8.532;2022-12-18T16:18:59;42.08;;;18.02;;
23080;SDS011;11708;50.570;8.532;2022-12-18T16:21:25;42.08;;;17.83;;
23080;SDS011;11708;50.570;8.532;2022-12-18T16:23:50;45.85;;;19.38;;
23080;SDS011;11708;50.570;8.532;2022-12-18T16:26:16;48.03;;;18.05;;
23080;SDS011;11708;50.570;8.532;2022-12-18T16:28:41;44.78;;;17.90;;
23080;SDS011;11708;50.570;8.532;2022-12-18T16:31:07;42.42;;;17.92;;
23080;SDS011;11708;50.570;8.532;2022-12-18T16:33:33;59.50;;;23.95;;
23080;SDS011;11708;50.570;8.532;2022-12-18T16:35:58;49.47;;;21.42;;
23080;SDS011;11708;50.570;8.532;2022-12-18T16:38:24;42.42;;;17.75;;
23080;SDS011;11708;50.570;8.532;2022-12-18T16:40:49;44.50;;;18.92;;
23080;SDS011;11708;50.570;8.532;2022-12-18T16:43:33;45.97;;;18.08;;
23080;SDS011;11708;50.570;8.532;2022-12-18T16:45:59;44.65;;;16.80;;
23080;SDS011;11708;50.570;8.532;2022-12-18T16:48:25;46.20;;;18.08;;
23080;SDS011;11708;50.570;8.532;2022-12-18T16:50:51;42.88;;;16.80;;
23080;SDS011;11708;50.570;8.532;2022-12-18T16:53:26;45.53;;;17.88;;
23080;SDS011;11708;50.570;8.532;2022-12-18T16:55:55;46.80;;;17.83;;
23080;SDS011;11708;50.570;8.532;2022-12-18T16:58:21;38.83;;;17.33;;
23080;SDS011;11708;50.570;8.532;2022-12-18T17:00:47;39.72;;;17.23;;